Time;durP1;ratioP1;P1;durP2;ratioP2;P2;SDS_P1;SDS_P2;PMS_P1;PMS_P2;Temp;Humidity;BMP_temperature;BMP_pressure;BME280_temperature;BME280_humidity;BME280_pressure;Samples;Min_cycle;Max_cycle;Signal;HPM_P1;HPM_P2
2022/09/30 00:00:06;;;;;;;0.80;0.80;;;;;;;8.43;92.92;99578.34;5011235;28;20173;-76
2022/09/30 00:02:32;;;;;;;1.53;1.43;;;;;;;8.41;92.61;99580.59;5011040;28;20242;-78
2022/09/30 00:04:57;;;;;;;1.37;1.27;;;;;;;8.45;92.75;99573.41;5011110;28;20569;-77
2022/09/30 00:07:22;;;;;;;0.83;0.83;;;;;;;8.46;92.63;99575.00;5011174;28;20685;-77
2022/09/30 00:09:49;;;;;;;0.20;0.20;;;;;;;8.45;92.32;99581.56;5011341;28;20651;-77
2022/09/30 00:12:15;;;;;;;0.90;0.90;;;;;;;8.46;92.17;99594.84;5010909;28;20183;-77
2022/09/30 00:14:41;;;;;;;0.90;0.90;;;;;;;8.46;92.32;99585.88;5011690;28;20191;-76
2022/09/30 00:17:06;;;;;;;0.10;0.10;;;;;;;8.41;92.61;99586.03;5013539;28;20180;-76
2022/09/30 00:19:31;;;;;;;0.77;0.77;;;;;;;8.38;93.09;99581.22;5015813;28;20204;-76
2022/09/30 00:21:56;;;;;;;0.90;0.90;;;;;;;8.33;92.89;99582.94;5011026;28;20189;-77
2022/09/30 00:24:22;;;;;;;1.27;1.20;;;;;;;8.25;93.86;99588.38;5010881;28;20180;-76
2022/09/30 00:26:47;;;;;;;0.57;0.57;;;;;;;8.27;93.86;99592.41;5010520;28;20254;-76
2022/09/30 00:29:12;;;;;;;0.50;0.50;;;;;;;8.29;93.90;99590.16;5011000;28;20203;-77
2022/09/30 00:31:38;;;;;;;0.57;0.57;;;;;;;8.23;94.05;99587.88;4993254;28;20184;-76
2022/09/30 00:34:06;;;;;;;0.60;0.60;;;;;;;8.18;94.49;99579.88;5010873;28;20215;-76
2022/09/30 00:36:49;;;;;;;0.30;0.30;;;;;;;8.13;94.62;99582.75;5010847;28;20268;-77
2022/09/30 00:39:20;;;;;;;1.50;1.40;;;;;;;8.05;95.28;99574.22;5014108;28;20181;-76
2022/09/30 00:41:50;;;;;;;1.60;1.10;;;;;;;8.07;95.82;99582.06;5013625;28;20207;-76
2022/09/30 00:44:52;;;;;;;0.10;0.10;;;;;;;8.04;95.88;99582.72;5010514;28;20728;-76
2022/09/30 00:47:23;;;;;;;1.13;1.03;;;;;;;8.03;96.23;99583.84;5010269;28;20256;-76
2022/09/30 00:49:49;;;;;;;1.87;1.37;;;;;;;8.05;95.96;99579.69;5010524;28;20222;-76
2022/09/30 00:52:15;;;;;;;0.00;0.00;;;;;;;8.10;96.09;99578.75;5010431;28;20698;-75
2022/09/30 00:54:40;;;;;;;0.30;0.30;;;;;;;8.13;95.57;99589.00;5010682;28;20205;-76
2022/09/30 00:57:07;;;;;;;1.07;0.97;;;;;;;8.10;95.62;99580.63;5010282;28;20595;-76
2022/09/30 00:59:46;;;;;;;0.73;0.30;;;;;;;8.07;95.84;99591.03;5010890;28;20177;-77
2022/09/30 01:02:13;;;;;;;0.30;0.30;;;;;;;8.06;96.07;99591.34;5010373;28;20263;-77
2022/09/30 01:04:40;;;;;;;0.00;0.00;;;;;;;8.08;96.17;99589.13;5010275;28;20538;-77
2022/09/30 01:07:07;;;;;;;0.00;0.00;;;;;;;7.90;95.69;99588.28;5010424;28;20173;-77
2022/09/30 01:09:34;;;;;;;0.00;0.00;;;;;;;7.89;96.32;99599.47;4992932;28;20540;-76
2022/09/30 01:12:05;;;;;;;0.00;0.00;;;;;;;8.00;96.87;99607.03;4994434;28;20177;-77
2022/09/30 01:14:31;;;;;;;0.20;0.20;;;;;;;7.98;96.43;99592.94;5014170;28;20180;-77
2022/09/30 01:17:09;;;;;;;1.03;1.03;;;;;;;8.02;96.47;99593.91;5013796;28;20600;-77
2022/09/30 01:20:02;;;;;;;0.00;0.00;;;;;;;7.94;96.61;99600.13;5014171;28;20173;-77
2022/09/30 01:23:05;;;;;;;0.30;0.30;;;;;;;7.80;97.12;99598.63;5014035;28;20227;-76
2022/09/30 01:25:42;;;;;;;0.00;0.00;;;;;;;7.68;97.09;99602.75;5014080;28;20204;-76
2022/09/30 01:28:25;;;;;;;0.00;0.00;;;;;;;7.49;97.71;99593.19;5013846;28;20191;-76
2022/09/30 01:31:15;;;;;;;0.00;0.00;;;;;;;7.37;98.63;99607.34;5013725;28;20177;-76
2022/09/30 01:34:15;;;;;;;0.00;0.00;;;;;;;7.34;98.66;99603.34;5013798;28;20656;-77
2022/09/30 01:36:53;;;;;;;0.00;0.00;;;;;;;7.40;98.88;99612.97;5013587;28;20172;-76
2022/09/30 01:39:42;;;;;;;0.00;0.00;;;;;;;6.88;99.76;99608.28;4996396;28;20458;-77
2022/09/30 01:42:17;;;;;;;0.00;0.00;;;;;;;6.68;100.00;99601.41;5013535;28;20173;-76
2022/09/30 01:45:07;;;;;;;0.00;0.00;;;;;;;6.42;100.00;99610.13;5013560;28;20202;-77
2022/09/30 01:47:41;;;;;;;0.00;0.00;;;;;;;6.12;100.00;99605.34;4995666;28;20656;-77
2022/09/30 01:50:19;;;;;;;0.00;0.00;;;;;;;6.36;100.00;99608.59;4995917;28;20617;-77
2022/09/30 01:53:27;;;;;;;0.00;0.00;;;;;;;6.57;100.00;99608.97;5013768;28;20588;-77
2022/09/30 01:56:16;;;;;;;0.00;0.00;;;;;;;6.73;100.00;99610.25;4952064;29;20647;-77
2022/09/30 01:58:50;;;;;;;0.00;0.00;;;;;;;6.47;100.00;99612.72;5009908;28;20184;-77
2022/09/30 02:01:23;;;;;;;0.00;0.00;;;;;;;6.37;100.00;99615.66;4995635;28;20258;-77
2022/09/30 02:03:55;;;;;;;0.73;0.73;;;;;;;6.68;100.00;99620.44;5013107;28;20185;-76
2022/09/30 02:06:26;;;;;;;0.00;0.00;;;;;;;6.60;100.00;99613.78;5012966;28;20251;-76
2022/09/30 02:09:12;;;;;;;0.00;0.00;;;;;;;6.51;99.96;99613.72;5013126;28;20173;-77
2022/09/30 02:11:40;;;;;;;0.30;0.30;;;;;;;6.43;99.62;99616.34;5012857;28;20807;-76
2022/09/30 02:14:20;;;;;;;0.00;0.00;;;;;;;6.29;99.95;99621.78;4995827;28;20164;-77
2022/09/30 02:16:58;;;;;;;0.00;0.00;;;;;;;6.11;100.00;99620.81;4995260;28;20180;-77
2022/09/30 02:19:32;;;;;;;0.00;0.00;;;;;;;6.06;100.00;99620.09;4995166;28;20183;-77
2022/09/30 02:22:01;;;;;;;1.00;1.00;;;;;;;5.91;100.00;99621.19;5013012;28;20169;-77
2022/09/30 02:24:35;;;;;;;0.00;0.00;;;;;;;5.90;100.00;99619.56;4994308;28;20184;-77
2022/09/30 02:27:05;;;;;;;0.07;0.07;;;;;;;5.68;100.00;99622.97;5012527;28;20243;-78
2022/09/30 02:29:35;;;;;;;0.00;0.00;;;;;;;5.77;100.00;99615.72;5012711;28;20531;-77
2022/09/30 02:32:12;;;;;;;0.00;0.00;;;;;;;6.03;100.00;99615.28;4995003;28;20671;-77
2022/09/30 02:34:40;;;;;;;0.33;0.33;;;;;;;6.45;100.00;99619.56;5012685;28;20259;-77
2022/09/30 02:37:13;;;;;;;0.00;0.00;;;;;;;6.70;100.00;99621.72;5012511;28;20181;-77
2022/09/30 02:39:46;;;;;;;1.30;1.20;;;;;;;6.68;100.00;99626.66;5012991;28;20196;-77
2022/09/30 02:42:23;;;;;;;0.40;0.40;;;;;;;6.80;100.00;99623.41;5012458;28;20636;-76
2022/09/30 02:44:51;;;;;;;0.77;0.77;;;;;;;6.94;100.00;99632.28;5012584;28;20206;-76
2022/09/30 02:47:45;;;;;;;0.10;0.10;;;;;;;6.95;100.00;99622.25;5012286;28;20180;-77
2022/09/30 02:50:19;;;;;;;1.20;1.17;;;;;;;7.12;100.00;99636.75;5012276;28;20191;-76
2022/09/30 02:53:13;;;;;;;0.00;0.00;;;;;;;7.20;100.00;99639.84;5012299;28;20660;-77
2022/09/30 02:56:15;;;;;;;0.00;0.00;;;;;;;7.01;100.00;99634.59;5012119;28;20176;-77
2022/09/30 02:58:42;;;;;;;0.10;0.10;;;;;;;6.47;100.00;99645.28;4994618;28;20271;-77
2022/09/30 03:01:13;;;;;;;0.00;0.00;;;;;;;5.92;100.00;99639.06;5011896;28;20571;-77
2022/09/30 03:03:52;;;;;;;0.00;0.00;;;;;;;5.81;100.00;99626.78;5012041;28;20195;-77
2022/09/30 03:06:18;;;;;;;0.10;0.10;;;;;;;6.11;100.00;99628.13;5011723;28;20214;-77
2022/09/30 03:08:44;;;;;;;1.47;0.90;;;;;;;6.47;100.00;99633.63;5011997;28;20177;-76
2022/09/30 03:11:25;;;;;;;0.83;0.83;;;;;;;6.71;100.00;99634.19;4994226;28;20699;-77
2022/09/30 03:14:21;;;;;;;0.70;0.70;;;;;;;6.95;100.00;99647.50;5012097;28;20369;-76
2022/09/30 03:17:17;;;;;;;0.00;0.00;;;;;;;6.69;100.00;99641.81;5011699;28;20328;-77
2022/09/30 03:19:48;;;;;;;0.00;0.00;;;;;;;6.63;100.00;99655.78;5012176;28;20636;-77
2022/09/30 03:22:31;;;;;;;0.03;0.03;;;;;;;6.41;100.00;99656.53;5011952;28;20603;-77
2022/09/30 03:24:56;;;;;;;0.00;0.00;;;;;;;6.31;100.00;99657.53;5011658;28;20196;-77
2022/09/30 03:27:36;;;;;;;0.00;0.00;;;;;;;6.16;100.00;99666.00;4993844;28;20176;-77
2022/09/30 03:30:08;;;;;;;1.03;1.03;;;;;;;5.88;100.00;99660.50;5011684;28;20182;-77
2022/09/30 03:32:55;;;;;;;0.00;0.00;;;;;;;5.39;100.00;99663.81;5011844;28;20270;-77
2022/09/30 03:35:41;;;;;;;0.00;0.00;;;;;;;5.25;100.00;99663.78;5011236;28;20183;-77
2022/09/30 03:38:30;;;;;;;0.00;0.00;;;;;;;5.15;100.00;99655.00;5011385;28;20664;-76
2022/09/30 03:41:12;;;;;;;2.43;2.43;;;;;;;5.33;100.00;99663.09;5011242;28;20540;-77
2022/09/30 03:43:44;;;;;;;0.00;0.00;;;;;;;5.64;100.00;99668.81;4993880;28;20272;-77
2022/09/30 03:46:39;;;;;;;0.00;0.00;;;;;;;5.60;100.00;99661.56;5011087;28;20220;-77
2022/09/30 03:49:10;;;;;;;0.00;0.00;;;;;;;5.19;100.00;99661.44;5009432;28;20192;-77
2022/09/30 03:51:38;;;;;;;0.00;0.00;;;;;;;5.10;100.00;99663.22;5011197;28;20173;-77
2022/09/30 03:54:08;;;;;;;0.07;0.07;;;;;;;5.48;100.00;99663.94;5011340;28;20189;-77
2022/09/30 03:56:34;;;;;;;0.00;0.00;;;;;;;5.63;100.00;99671.81;5010965;28;20256;-76
2022/09/30 03:59:00;;;;;;;5.07;2.17;;;;;;;5.59;100.00;99673.50;5011142;28;20177;-77
2022/09/30 04:01:25;;;;;;;4.27;3.83;;;;;;;5.54;100.00;99673.59;5011345;28;20180;-76
2022/09/30 04:03:52;;;;;;;0.50;0.50;;;;;;;5.49;100.00;99677.19;5010939;28;20246;-77
2022/09/30 04:06:20;;;;;;;2.23;2.13;;;;;;;5.43;100.00;99683.00;5010685;28;20212;-77
2022/09/30 04:08:45;;;;;;;1.83;1.80;;;;;;;5.42;100.00;99684.09;5010855;28;20255;-77
2022/09/30 04:11:11;;;;;;;0.67;0.67;;;;;;;5.30;100.00;99684.53;5010880;28;20292;-77
2022/09/30 04:13:37;;;;;;;0.00;0.00;;;;;;;5.45;100.00;99695.13;4993506;28;20216;-77
2022/09/30 04:16:03;;;;;;;0.00;0.00;;;;;;;5.53;100.00;99690.97;5010537;28;20173;-77
2022/09/30 04:18:30;;;;;;;0.30;0.30;;;;;;;5.48;100.00;99693.72;4993587;28;20599;-76
2022/09/30 04:20:56;;;;;;;0.00;0.00;;;;;;;5.43;100.00;99696.53;5010981;28;20176;-76
2022/09/30 04:23:21;;;;;;;0.00;0.00;;;;;;;5.44;100.00;99695.44;5010874;28;20183;-76
2022/09/30 04:25:53;;;;;;;0.13;0.13;;;;;;;5.43;100.00;99696.53;5010426;28;20287;-77
2022/09/30 04:28:19;;;;;;;0.00;0.00;;;;;;;5.40;100.00;99699.84;4976996;28;20191;-77
2022/09/30 04:30:44;;;;;;;2.50;2.43;;;;;;;5.22;100.00;99696.06;5010432;28;20443;-77
2022/09/30 04:33:11;;;;;;;0.00;0.00;;;;;;;4.90;100.00;99696.78;5010689;28;20234;-76
2022/09/30 04:35:37;;;;;;;0.00;0.00;;;;;;;4.92;100.00;99698.13;5010557;28;20172;-76
2022/09/30 04:38:06;;;;;;;0.00;0.00;;;;;;;5.11;100.00;99702.72;5010549;28;20235;-77
2022/09/30 04:40:34;;;;;;;0.00;0.00;;;;;;;4.97;100.00;99710.75;5010560;28;20691;-77
2022/09/30 04:42:59;;;;;;;0.00;0.00;;;;;;;5.23;100.00;99709.31;5010776;28;20585;-77
2022/09/30 04:45:25;;;;;;;1.50;1.40;;;;;;;5.34;100.00;99708.03;5010412;28;20299;-78
2022/09/30 04:47:50;;;;;;;0.40;0.40;;;;;;;5.28;100.00;99709.22;5013640;28;20175;-76
2022/09/30 04:50:15;;;;;;;0.00;0.00;;;;;;;5.27;100.00;99710.31;5014437;28;20648;-77
2022/09/30 04:52:42;;;;;;;5.83;3.83;;;;;;;5.31;100.00;99708.63;5014693;28;20203;-77
2022/09/30 04:55:08;;;;;;;0.00;0.00;;;;;;;5.28;100.00;99721.94;5014516;28;20181;-76
2022/09/30 04:57:34;;;;;;;0.13;0.13;;;;;;;5.03;100.00;99715.00;5014168;28;20732;-76
2022/09/30 04:59:59;;;;;;;0.00;0.00;;;;;;;5.11;100.00;99724.38;5014623;28;20267;-77
2022/09/30 05:02:24;;;;;;;0.00;0.00;;;;;;;5.16;100.00;99725.09;5014301;28;20664;-78
2022/09/30 05:04:50;;;;;;;0.00;0.00;;;;;;;5.35;100.00;99730.50;5014434;28;20351;-76
2022/09/30 05:07:15;;;;;;;0.00;0.00;;;;;;;5.40;100.00;99730.44;4996429;28;20536;-77
2022/09/30 05:09:40;;;;;;;0.10;0.10;;;;;;;5.36;100.00;99735.66;5013953;28;20188;-79
2022/09/30 05:12:07;;;;;;;0.00;0.00;;;;;;;5.30;100.00;99741.41;4996460;28;20187;-79
2022/09/30 05:14:33;;;;;;;0.00;0.00;;;;;;;5.27;100.00;99739.31;5014092;28;20195;-78
2022/09/30 05:16:58;;;;;;;0.00;0.00;;;;;;;5.19;100.00;99743.47;5013825;28;20184;-78
2022/09/30 05:19:24;;;;;;;0.00;0.00;;;;;;;5.05;100.00;99743.38;5014048;28;20659;-79
2022/09/30 05:21:50;;;;;;;0.00;0.00;;;;;;;5.00;100.00;99762.41;5014011;28;20507;-78
2022/09/30 05:24:16;;;;;;;0.23;0.23;;;;;;;5.11;100.00;99756.88;5014061;28;20258;-78
2022/09/30 05:26:41;;;;;;;0.00;0.00;;;;;;;5.12;100.00;99751.16;5013551;28;20254;-78
2022/09/30 05:29:08;;;;;;;0.00;0.00;;;;;;;5.07;100.00;99753.94;5013828;28;20176;-78
2022/09/30 05:31:34;;;;;;;0.00;0.00;;;;;;;4.97;100.00;99756.78;5014265;28;20181;-79
2022/09/30 05:34:00;;;;;;;0.00;0.00;;;;;;;5.08;100.00;99756.34;5013992;28;20230;-79
2022/09/30 05:36:25;;;;;;;0.00;0.00;;;;;;;5.18;100.00;99760.81;5013539;28;20176;-78
2022/09/30 05:38:51;;;;;;;0.00;0.00;;;;;;;5.16;100.00;99760.31;5013829;28;20628;-78
2022/09/30 05:41:19;;;;;;;0.00;0.00;;;;;;;5.13;100.00;99766.31;5013638;28;20629;-77
2022/09/30 05:43:46;;;;;;;0.63;0.63;;;;;;;5.23;100.00;99765.38;5013671;28;20258;-77
2022/09/30 05:46:15;;;;;;;0.00;0.00;;;;;;;5.01;100.00;99768.63;5013299;28;20204;-77
2022/09/30 05:48:41;;;;;;;0.00;0.00;;;;;;;5.04;100.00;99765.34;5013581;28;20230;-76
2022/09/30 05:51:09;;;;;;;0.00;0.00;;;;;;;5.09;100.00;99768.00;4995865;28;20576;-77
2022/09/30 05:53:40;;;;;;;0.00;0.00;;;;;;;5.13;100.00;99774.44;5013495;28;20644;-77
2022/09/30 05:56:06;;;;;;;0.00;0.00;;;;;;;5.20;100.00;99780.28;5013214;28;20304;-77
2022/09/30 05:58:32;;;;;;;0.00;0.00;;;;;;;5.14;100.00;99776.03;5013112;28;20176;-77
2022/09/30 06:01:05;;;;;;;0.00;0.00;;;;;;;4.97;100.00;99783.84;5013168;28;20544;-76
2022/09/30 06:03:30;;;;;;;0.00;0.00;;;;;;;5.02;100.00;99786.47;5013285;28;20566;-78
2022/09/30 06:05:56;;;;;;;0.00;0.00;;;;;;;5.05;100.00;99789.41;5012810;28;20220;-77
2022/09/30 06:08:22;;;;;;;0.00;0.00;;;;;;;5.18;100.00;99785.19;5013164;28;20230;-77
2022/09/30 06:10:48;;;;;;;0.73;0.73;;;;;;;5.31;100.00;99786.34;4995425;28;20187;-77
2022/09/30 06:13:13;;;;;;;0.00;0.00;;;;;;;5.41;100.00;99790.84;5013256;28;20172;-78
2022/09/30 06:15:40;;;;;;;1.37;1.37;;;;;;;5.43;100.00;99792.16;5012879;28;20208;-77
2022/09/30 06:18:06;;;;;;;0.00;0.00;;;;;;;5.50;100.00;99795.31;5012984;28;20223;-77
2022/09/30 06:20:32;;;;;;;0.30;0.30;;;;;;;5.56;100.00;99801.44;5012904;28;20172;-78
2022/09/30 06:23:01;;;;;;;0.00;0.00;;;;;;;5.62;100.00;99808.38;5013330;28;20181;-77
2022/09/30 06:25:28;;;;;;;0.00;0.00;;;;;;;5.56;100.00;99810.38;5012759;28;20497;-77
2022/09/30 06:27:53;;;;;;;0.00;0.00;;;;;;;5.47;100.00;99816.75;5012795;28;20180;-77
2022/09/30 06:30:18;;;;;;;0.00;0.00;;;;;;;5.66;100.00;99820.28;5012676;28;20606;-77
2022/09/30 06:32:44;;;;;;;0.00;0.00;;;;;;;5.83;100.00;99817.81;5012865;28;20172;-77
2022/09/30 06:35:10;;;;;;;0.00;0.00;;;;;;;5.93;100.00;99819.59;5012567;28;20176;-77
2022/09/30 06:37:36;;;;;;;0.00;0.00;;;;;;;6.00;100.00;99832.78;4994757;28;20395;-78
2022/09/30 06:40:03;;;;;;;0.00;0.00;;;;;;;6.10;100.00;99824.47;5012461;28;20594;-77
2022/09/30 06:42:28;;;;;;;0.00;0.00;;;;;;;6.17;100.00;99841.16;5012671;28;20177;-78
2022/09/30 06:44:54;;;;;;;0.00;0.00;;;;;;;6.22;100.00;99841.06;5012510;28;20197;-77
2022/09/30 06:47:20;;;;;;;0.10;0.10;;;;;;;6.30;100.00;99843.13;4994682;28;20237;-77
2022/09/30 06:49:45;;;;;;;0.00;0.00;;;;;;;6.33;100.00;99844.41;5012808;28;20173;-77
2022/09/30 06:52:13;;;;;;;0.00;0.00;;;;;;;6.35;100.00;99842.22;5012189;28;20184;-77
2022/09/30 06:54:42;;;;;;;0.33;0.33;;;;;;;6.33;100.00;99845.22;5012378;28;20176;-77
2022/09/30 06:57:08;;;;;;;0.00;0.00;;;;;;;6.42;100.00;99846.16;5011983;28;20731;-77
2022/09/30 06:59:34;;;;;;;0.00;0.00;;;;;;;6.45;100.00;99848.28;4994472;28;20263;-77
2022/09/30 07:01:59;;;;;;;0.00;0.00;;;;;;;6.47;100.00;99839.81;5012477;28;20183;-76
2022/09/30 07:04:25;;;;;;;0.00;0.00;;;;;;;6.46;100.00;99843.66;5012066;28;20188;-77
2022/09/30 07:06:50;;;;;;;54.33;20.13;;;;;;;6.59;100.00;99844.78;5011733;28;20208;-76
2022/09/30 07:09:16;;;;;;;0.00;0.00;;;;;;;6.66;100.00;99848.72;5011435;28;20624;-78
2022/09/30 07:11:42;;;;;;;0.00;0.00;;;;;;;6.75;100.00;99857.75;5011940;28;20175;-78
2022/09/30 07:14:09;;;;;;;0.00;0.00;;;;;;;6.81;100.00;99851.16;5012018;28;20169;-77
2022/09/30 07:16:34;;;;;;;0.00;0.00;;;;;;;6.90;100.00;99853.94;5011598;28;20323;-77
2022/09/30 07:19:01;;;;;;;0.10;0.10;;;;;;;7.07;100.00;99851.44;5012227;28;20263;-77
2022/09/30 07:21:26;;;;;;;0.13;0.13;;;;;;;7.24;100.00;99867.16;5011768;28;20257;-77
2022/09/30 07:23:53;;;;;;;0.00;0.00;;;;;;;7.30;100.00;99860.47;5011805;28;20636;-77
2022/09/30 07:26:22;;;;;;;0.00;0.00;;;;;;;7.45;100.00;99860.16;5011435;28;20204;-77
2022/09/30 07:28:49;;;;;;;0.20;0.20;;;;;;;7.53;100.00;99858.66;5011975;28;20204;-77
2022/09/30 07:31:20;;;;;;;0.00;0.00;;;;;;;7.68;100.00;99854.78;5011664;28;20173;-77
2022/09/30 07:33:46;;;;;;;0.00;0.00;;;;;;;7.86;100.00;99858.44;5011740;28;20538;-77
2022/09/30 07:36:14;;;;;;;0.00;0.00;;;;;;;7.98;100.00;99864.94;5011265;28;20188;-77
2022/09/30 07:38:41;;;;;;;0.00;0.00;;;;;;;8.14;100.00;99861.88;5011549;28;20179;-76
2022/09/30 07:41:11;;;;;;;0.00;0.00;;;;;;;8.15;100.00;99871.63;5011568;28;20177;-77
2022/09/30 07:43:40;;;;;;;0.00;0.00;;;;;;;8.22;100.00;99878.22;5011458;28;20180;-77
2022/09/30 07:46:16;;;;;;;0.20;0.20;;;;;;;8.35;100.00;99877.41;5011069;28;20301;-77
2022/09/30 07:48:45;;;;;;;0.00;0.00;;;;;;;8.44;100.00;99874.75;5011339;28;20230;-77
2022/09/30 07:51:20;;;;;;;0.00;0.00;;;;;;;8.49;100.00;99874.59;5011254;28;20498;-78
2022/09/30 07:53:49;;;;;;;0.00;0.00;;;;;;;8.73;100.00;99889.81;5011464;28;20180;-77
2022/09/30 07:56:16;;;;;;;0.00;0.00;;;;;;;8.85;100.00;99884.56;5011428;28;20168;-77
2022/09/30 07:58:41;;;;;;;0.20;0.20;;;;;;;8.90;100.00;99884.44;5011483;28;20187;-76
2022/09/30 08:01:07;;;;;;;0.10;0.10;;;;;;;9.00;100.00;99886.88;5017080;28;20177;-76
2022/09/30 08:03:39;;;;;;;0.00;0.00;;;;;;;9.06;100.00;99890.25;4993468;28;20291;-77
2022/09/30 08:06:09;;;;;;;0.00;0.00;;;;;;;9.09;100.00;99882.25;5011018;28;20208;-77
2022/09/30 08:08:35;;;;;;;0.00;0.00;;;;;;;9.15;100.00;99891.91;5011325;28;20169;-77
2022/09/30 08:11:02;;;;;;;0.23;0.13;;;;;;;9.32;100.00;99887.63;5011118;28;20714;-77
2022/09/30 08:13:27;;;;;;;0.27;0.27;;;;;;;9.62;100.00;99894.13;5011568;28;20632;-77
2022/09/30 08:15:53;;;;;;;0.00;0.00;;;;;;;9.79;100.00;99894.13;5010852;28;20188;-77
2022/09/30 08:18:18;;;;;;;1.00;1.00;;;;;;;9.96;99.91;99902.31;5010924;28;20224;-77
2022/09/30 08:20:43;;;;;;;1.40;1.30;;;;;;;10.13;97.37;99894.16;5010954;28;20177;-77
2022/09/30 08:23:09;;;;;;;0.00;0.00;;;;;;;10.40;94.96;99895.75;5011088;28;20413;-77
2022/09/30 08:25:34;;;;;;;0.00;0.00;;;;;;;10.55;92.82;99901.84;5010787;28;20202;-76
2022/09/30 08:28:00;;;;;;;0.00;0.00;;;;;;;10.61;91.79;99900.56;4993210;28;20573;-76
2022/09/30 08:30:25;;;;;;;0.00;0.00;;;;;;;10.71;91.66;99901.00;5010736;28;20274;-78
2022/09/30 08:32:50;;;;;;;1.13;1.03;;;;;;;10.98;89.97;99904.44;5011039;28;20184;-77
2022/09/30 08:35:15;;;;;;;0.03;0.03;;;;;;;11.16;89.58;99905.19;5010815;28;20543;-76
2022/09/30 08:37:41;;;;;;;0.00;0.00;;;;;;;11.13;88.00;99912.09;5010636;28;20229;-77
2022/09/30 08:40:17;;;;;;;1.73;1.63;;;;;;;11.20;87.34;99898.75;5010502;28;20640;-77
2022/09/30 08:43:02;;;;;;;0.00;0.00;;;;;;;11.30;86.81;99911.25;5010700;28;20187;-77
2022/09/30 08:45:46;;;;;;;0.00;0.00;;;;;;;11.42;86.31;99913.25;5010539;28;20694;-77
2022/09/30 08:48:28;;;;;;;0.00;0.00;;;;;;;11.52;87.43;99919.16;5010737;28;20210;-76
2022/09/30 08:51:12;;;;;;;0.60;0.60;;;;;;;11.66;87.34;99913.44;5010494;28;20623;-76
2022/09/30 08:53:42;;;;;;;2.67;2.47;;;;;;;11.79;85.65;99911.63;5010577;28;20263;-77
2022/09/30 08:56:16;;;;;;;1.53;1.43;;;;;;;11.86;84.28;99920.09;5010384;28;20180;-76
2022/09/30 08:58:44;;;;;;;0.07;0.07;;;;;;;11.87;85.38;99917.06;4992839;28;20223;-76
2022/09/30 09:01:19;;;;;;;0.43;0.43;;;;;;;11.94;85.90;99927.47;5010446;28;20180;-77
2022/09/30 09:03:44;;;;;;;0.10;0.10;;;;;;;11.94;84.28;99923.94;4992735;28;20191;-76
2022/09/30 09:06:22;;;;;;;0.00;0.00;;;;;;;11.98;83.00;99925.66;5010059;28;20569;-77
2022/09/30 09:09:02;;;;;;;1.03;1.03;;;;;;;12.02;81.12;99940.31;5010446;28;20180;-76
2022/09/30 09:11:57;;;;;;;0.37;0.37;;;;;;;12.17;80.64;99936.16;5010536;28;20191;-76
2022/09/30 09:14:43;;;;;;;1.90;1.80;;;;;;;12.28;79.15;99931.06;5010421;28;20718;-76
2022/09/30 09:17:19;;;;;;;0.27;0.27;;;;;;;12.32;77.47;99926.53;5009974;28;20633;-77
2022/09/30 09:19:57;;;;;;;0.00;0.00;;;;;;;12.36;77.51;99931.00;5010663;28;20271;-76
2022/09/30 09:22:25;;;;;;;0.67;0.67;;;;;;;12.47;78.22;99932.19;4992569;28;20527;-75
2022/09/30 09:24:52;;;;;;;1.70;0.60;;;;;;;12.51;77.87;99935.84;5010179;28;20751;-75
2022/09/30 09:27:20;;;;;;;0.10;0.10;;;;;;;12.59;76.80;99936.94;5009884;28;20402;-75
2022/09/30 09:30:12;;;;;;;2.10;2.00;;;;;;;12.69;76.98;99927.47;4992583;28;20534;-76
2022/09/30 09:32:37;;;;;;;0.90;0.90;;;;;;;12.72;76.23;99935.00;5010490;28;20571;-76
2022/09/30 09:35:15;;;;;;;1.03;1.00;;;;;;;12.69;75.81;99935.69;5013864;28;20188;-76
2022/09/30 09:38:24;;;;;;;1.00;1.00;;;;;;;12.74;75.93;99939.03;5013734;28;20663;-76
2022/09/30 09:41:07;;;;;;;2.83;1.93;;;;;;;12.76;76.17;99946.91;5013671;28;20191;-76
2022/09/30 09:43:42;;;;;;;1.00;1.00;;;;;;;12.85;77.99;99939.38;4996363;28;20632;-76
2022/09/30 09:46:25;;;;;;;3.17;2.93;;;;;;;12.85;77.06;99927.63;5013147;28;20576;-76
2022/09/30 09:49:12;;;;;;;1.70;1.53;;;;;;;12.85;77.29;99936.63;5013506;28;20179;-75
2022/09/30 09:51:57;;;;;;;0.07;0.07;;;;;;;12.96;78.06;99934.28;5013371;28;20173;-76
2022/09/30 09:54:26;;;;;;;1.93;1.83;;;;;;;13.08;76.44;99940.59;4996126;28;20559;-75
2022/09/30 09:56:53;;;;;;;9.10;0.70;;;;;;;13.22;74.93;99929.31;5013297;28;20215;-79
2022/09/30 09:59:19;;;;;;;2.30;2.10;;;;;;;13.20;74.06;99928.88;4995955;28;20181;-78
2022/09/30 10:01:46;;;;;;;2.63;2.43;;;;;;;13.21;72.63;99930.47;5013438;28;20199;-77
2022/09/30 10:04:17;;;;;;;0.30;0.30;;;;;;;13.23;72.80;99932.88;5013345;28;20254;-78
2022/09/30 10:06:52;;;;;;;0.80;0.80;;;;;;;13.41;72.91;99936.97;5013369;28;20610;-78
2022/09/30 10:09:34;;;;;;;0.10;0.10;;;;;;;13.46;71.47;99925.78;5013627;28;20172;-78
2022/09/30 10:12:05;;;;;;;1.27;1.27;;;;;;;13.58;71.73;99934.00;5013314;28;20180;-79
2022/09/30 10:14:51;;;;;;;2.07;1.87;;;;;;;13.64;71.00;99932.66;5013588;28;20180;-78
2022/09/30 10:17:34;;;;;;;0.10;0.10;;;;;;;13.63;70.53;99917.31;5017028;28;20181;-78
2022/09/30 10:20:15;;;;;;;0.70;0.70;;;;;;;13.73;70.74;99927.00;5013349;28;20185;-78
2022/09/30 10:22:41;;;;;;;7.77;3.50;;;;;;;13.78;69.95;99921.31;4995481;28;20180;-77
2022/09/30 10:25:24;;;;;;;2.13;2.03;;;;;;;13.83;69.47;99932.03;5013409;28;20223;-77
2022/09/30 10:27:58;;;;;;;1.27;1.27;;;;;;;13.79;68.23;99927.59;5012890;28;20252;-78
2022/09/30 10:30:38;;;;;;;7.63;1.37;;;;;;;13.82;67.98;99921.41;5012899;28;20167;-78
2022/09/30 10:33:21;;;;;;;2.37;2.20;;;;;;;13.81;68.78;99914.31;5012958;28;20168;-77
2022/09/30 10:36:07;;;;;;;2.30;2.13;;;;;;;13.97;70.69;99918.75;5012545;28;20172;-78
2022/09/30 10:38:34;;;;;;;0.40;0.40;;;;;;;13.98;68.94;99911.31;5012771;28;20227;-78
2022/09/30 10:41:01;;;;;;;1.20;1.13;;;;;;;14.12;69.35;99921.91;5012645;28;20177;-77
2022/09/30 10:43:33;;;;;;;0.50;0.50;;;;;;;14.03;68.05;99913.00;5012020;28;20180;-79
2022/09/30 10:46:02;;;;;;;1.37;1.27;;;;;;;14.08;67.97;99913.56;5012171;28;20285;-78
2022/09/30 10:48:32;;;;;;;1.93;1.83;;;;;;;14.07;67.98;99911.97;5012407;28;20176;-77
2022/09/30 10:50:57;;;;;;;1.40;1.30;;;;;;;14.16;69.14;99912.63;5012678;28;20252;-77
2022/09/30 10:53:26;;;;;;;0.40;0.40;;;;;;;14.16;67.22;99915.38;5012481;28;20582;-77
2022/09/30 10:55:54;;;;;;;3.27;3.00;;;;;;;14.15;66.60;99910.22;5012241;28;20434;-77
2022/09/30 10:58:46;;;;;;;2.03;1.93;;;;;;;14.14;66.39;99922.34;5012104;28;20207;-76
2022/09/30 11:01:28;;;;;;;4.67;3.07;;;;;;;14.16;66.83;99911.81;5001734;28;20250;-77
2022/09/30 11:03:54;;;;;;;0.50;0.37;;;;;;;14.31;67.97;99922.06;4994580;28;20284;-78
2022/09/30 11:06:21;;;;;;;0.63;0.63;;;;;;;14.39;66.80;99920.34;5011832;28;20291;-78
2022/09/30 11:08:55;;;;;;;1.60;1.50;;;;;;;14.41;65.10;99912.53;5012267;28;20291;-77
2022/09/30 11:11:26;;;;;;;1.63;1.50;;;;;;;14.45;66.78;99927.19;5012174;28;20711;-78
2022/09/30 11:14:04;;;;;;;1.80;1.70;;;;;;;14.53;66.56;99926.25;5012048;28;20212;-77
2022/09/30 11:17:04;;;;;;;0.40;0.40;;;;;;;14.62;66.37;99929.66;5011778;28;20226;-76
2022/09/30 11:19:34;;;;;;;1.50;1.40;;;;;;;14.70;64.98;99933.41;5011862;28;20345;-77
2022/09/30 11:22:22;;;;;;;1.80;1.70;;;;;;;14.77;64.72;99928.09;5011910;28;20204;-78
2022/09/30 11:24:51;;;;;;;2.70;2.50;;;;;;;14.78;64.31;99930.50;5011817;28;20172;-77
2022/09/30 11:27:28;;;;;;;3.60;2.60;;;;;;;14.83;66.36;99935.72;5011549;28;20169;-77
2022/09/30 11:30:07;;;;;;;5.40;4.07;;;;;;;14.98;64.45;99941.63;5011677;28;20179;-76
2022/09/30 11:32:47;;;;;;;4.00;3.07;;;;;;;14.96;64.76;99938.41;5011730;28;20702;-75
2022/09/30 11:35:37;;;;;;;3.00;2.80;;;;;;;15.05;64.70;99937.09;5011624;28;20555;-78
2022/09/30 11:38:14;;;;;;;2.03;1.90;;;;;;;14.96;64.85;99930.16;4993816;28;20181;-77
2022/09/30 11:40:58;;;;;;;1.13;0.83;;;;;;;14.91;64.71;99927.69;5011465;28;20267;-77
2022/09/30 11:43:30;;;;;;;0.00;0.00;;;;;;;15.12;66.27;99933.72;5011604;28;20192;-77
2022/09/30 11:46:14;;;;;;;1.07;1.07;;;;;;;15.36;64.33;99932.75;5011188;28;20196;-78
2022/09/30 11:48:58;;;;;;;2.67;2.57;;;;;;;15.20;62.76;99921.75;5011571;28;20187;-77
2022/09/30 11:51:35;;;;;;;2.30;2.20;;;;;;;15.21;62.31;99926.09;5011681;28;20191;-77
2022/09/30 11:54:28;;;;;;;0.40;0.40;;;;;;;15.31;63.35;99919.25;5011482;28;20184;-76
2022/09/30 11:57:22;;;;;;;2.80;2.60;;;;;;;15.13;61.84;99927.88;5010668;28;20208;-77